sensor_id;sensor_type;location;lat;lon;timestamp;P1;durP1;ratioP1;P2;durP2;ratioP2
24859;SDS011;12936;52.006;4.350;2023-07-31T00:01:33;34.08;;;8.43;;
24859;SDS011;12936;52.006;4.350;2023-07-31T00:04:01;29.50;;;6.70;;
24859;SDS011;12936;52.006;4.350;2023-07-31T00:06:29;34.03;;;7.25;;
24859;SDS011;12936;52.006;4.350;2023-07-31T00:08:59;29.67;;;7.32;;
24859;SDS011;12936;52.006;4.350;2023-07-31T00:11:29;31.55;;;7.30;;
24859;SDS011;12936;52.006;4.350;2023-07-31T00:13:58;29.30;;;6.65;;
24859;SDS011;12936;52.006;4.350;2023-07-31T00:16:26;31.20;;;8.43;;
24859;SDS011;12936;52.006;4.350;2023-07-31T00:18:57;29.67;;;7.72;;
24859;SDS011;12936;52.006;4.350;2023-07-31T00:21:25;25.23;;;6.82;;
24859;SDS011;12936;52.006;4.350;2023-07-31T00:23:54;29.10;;;7.38;;
24859;SDS011;12936;52.006;4.350;2023-07-31T00:26:24;26.42;;;6.78;;
24859;SDS011;12936;52.006;4.350;2023-07-31T00:28:54;27.70;;;7.18;;
24859;SDS011;12936;52.006;4.350;2023-07-31T00:31:22;27.73;;;7.80;;
24859;SDS011;12936;52.006;4.350;2023-07-31T00:33:55;30.58;;;7.50;;
24859;SDS011;12936;52.006;4.350;2023-07-31T00:36:23;28.83;;;7.47;;
24859;SDS011;12936;52.006;4.350;2023-07-31T00:38:52;26.33;;;7.55;;
24859;SDS011;12936;52.006;4.350;2023-07-31T00:41:20;28.75;;;7.05;;
24859;SDS011;12936;52.006;4.350;2023-07-31T00:43:50;24.38;;;6.93;;
24859;SDS011;12936;52.006;4.350;2023-07-31T00:46:18;31.90;;;7.45;;
24859;SDS011;12936;52.006;4.350;2023-07-31T00:48:47;26.52;;;6.45;;
24859;SDS011;12936;52.006;4.350;2023-07-31T00:51:15;24.42;;;6.80;;
24859;SDS011;12936;52.006;4.350;2023-07-31T00:53:44;22.60;;;6.78;;
24859;SDS011;12936;52.006;4.350;2023-07-31T00:56:14;20.35;;;6.80;;
24859;SDS011;12936;52.006;4.350;2023-07-31T00:58:43;25.80;;;6.20;;
24859;SDS011;12936;52.006;4.350;2023-07-31T01:01:16;18.90;;;5.70;;
24859;SDS011;12936;52.006;4.350;2023-07-31T01:03:45;26.73;;;6.30;;
24859;SDS011;12936;52.006;4.350;2023-07-31T01:06:17;18.42;;;5.65;;
24859;SDS011;12936;52.006;4.350;2023-07-31T01:08:54;16.90;;;5.07;;
24859;SDS011;12936;52.006;4.350;2023-07-31T01:11:27;21.30;;;6.80;;
24859;SDS011;12936;52.006;4.350;2023-07-31T01:13:55;28.13;;;7.05;;
24859;SDS011;12936;52.006;4.350;2023-07-31T01:16:26;33.10;;;8.70;;
24859;SDS011;12936;52.006;4.350;2023-07-31T01:18:54;32.60;;;9.00;;
24859;SDS011;12936;52.006;4.350;2023-07-31T01:21:25;30.60;;;7.82;;
24859;SDS011;12936;52.006;4.350;2023-07-31T01:24:22;22.17;;;7.40;;
24859;SDS011;12936;52.006;4.350;2023-07-31T01:26:58;29.77;;;7.78;;
24859;SDS011;12936;52.006;4.350;2023-07-31T01:29:34;25.48;;;7.03;;
24859;SDS011;12936;52.006;4.350;2023-07-31T01:32:09;24.50;;;7.00;;
24859;SDS011;12936;52.006;4.350;2023-07-31T01:34:38;20.98;;;6.07;;
24859;SDS011;12936;52.006;4.350;2023-07-31T01:37:11;28.65;;;7.57;;
24859;SDS011;12936;52.006;4.350;2023-07-31T01:39:39;26.25;;;6.95;;
24859;SDS011;12936;52.006;4.350;2023-07-31T01:42:08;30.38;;;7.60;;
24859;SDS011;12936;52.006;4.350;2023-07-31T01:44:36;22.58;;;6.43;;
24859;SDS011;12936;52.006;4.350;2023-07-31T01:47:05;29.85;;;6.72;;
24859;SDS011;12936;52.006;4.350;2023-07-31T01:49:33;23.63;;;6.30;;
24859;SDS011;12936;52.006;4.350;2023-07-31T01:52:01;28.55;;;7.00;;
24859;SDS011;12936;52.006;4.350;2023-07-31T01:54:30;24.70;;;6.32;;
24859;SDS011;12936;52.006;4.350;2023-07-31T01:56:59;29.77;;;7.78;;
24859;SDS011;12936;52.006;4.350;2023-07-31T01:59:29;27.50;;;7.75;;
24859;SDS011;12936;52.006;4.350;2023-07-31T02:01:57;33.55;;;8.20;;
24859;SDS011;12936;52.006;4.350;2023-07-31T02:04:25;28.27;;;7.28;;
24859;SDS011;12936;52.006;4.350;2023-07-31T02:06:56;32.53;;;8.38;;
24859;SDS011;12936;52.006;4.350;2023-07-31T02:09:27;33.42;;;8.27;;
24859;SDS011;12936;52.006;4.350;2023-07-31T02:11:55;34.15;;;7.43;;
24859;SDS011;12936;52.006;4.350;2023-07-31T02:14:24;31.98;;;7.93;;
24859;SDS011;12936;52.006;4.350;2023-07-31T02:16:54;29.25;;;7.82;;
24859;SDS011;12936;52.006;4.350;2023-07-31T02:19:22;23.73;;;7.13;;
24859;SDS011;12936;52.006;4.350;2023-07-31T02:21:52;31.90;;;7.55;;
24859;SDS011;12936;52.006;4.350;2023-07-31T02:24:20;29.63;;;7.75;;
24859;SDS011;12936;52.006;4.350;2023-07-31T02:26:48;32.88;;;7.28;;
24859;SDS011;12936;52.006;4.350;2023-07-31T02:29:16;33.83;;;7.18;;
24859;SDS011;12936;52.006;4.350;2023-07-31T02:31:44;22.83;;;6.75;;
24859;SDS011;12936;52.006;4.350;2023-07-31T02:34:14;27.38;;;6.88;;
24859;SDS011;12936;52.006;4.350;2023-07-31T02:36:42;32.60;;;6.88;;
24859;SDS011;12936;52.006;4.350;2023-07-31T02:39:10;21.00;;;5.70;;
24859;SDS011;12936;52.006;4.350;2023-07-31T02:41:38;28.00;;;6.25;;
24859;SDS011;12936;52.006;4.350;2023-07-31T02:44:06;29.35;;;5.90;;
24859;SDS011;12936;52.006;4.350;2023-07-31T02:46:34;28.58;;;6.55;;
24859;SDS011;12936;52.006;4.350;2023-07-31T02:49:03;26.63;;;6.35;;
24859;SDS011;12936;52.006;4.350;2023-07-31T02:51:33;34.05;;;7.78;;
24859;SDS011;12936;52.006;4.350;2023-07-31T02:54:01;28.13;;;7.70;;
24859;SDS011;12936;52.006;4.350;2023-07-31T02:56:29;26.83;;;7.35;;
24859;SDS011;12936;52.006;4.350;2023-07-31T02:58:57;25.23;;;7.13;;
24859;SDS011;12936;52.006;4.350;2023-07-31T03:01:28;26.27;;;6.45;;
24859;SDS011;12936;52.006;4.350;2023-07-31T03:03:56;35.15;;;8.25;;
24859;SDS011;12936;52.006;4.350;2023-07-31T03:06:24;27.33;;;6.80;;
24859;SDS011;12936;52.006;4.350;2023-07-31T03:08:55;29.98;;;7.07;;
24859;SDS011;12936;52.006;4.350;2023-07-31T03:11:23;24.70;;;7.38;;
24859;SDS011;12936;52.006;4.350;2023-07-31T03:13:52;27.70;;;6.05;;
24859;SDS011;12936;52.006;4.350;2023-07-31T03:16:20;21.55;;;5.90;;
24859;SDS011;12936;52.006;4.350;2023-07-31T03:18:49;24.70;;;6.18;;
24859;SDS011;12936;52.006;4.350;2023-07-31T03:21:17;29.23;;;7.00;;
24859;SDS011;12936;52.006;4.350;2023-07-31T03:23:45;26.10;;;5.93;;
24859;SDS011;12936;52.006;4.350;2023-07-31T03:26:14;30.60;;;6.22;;
24859;SDS011;12936;52.006;4.350;2023-07-31T03:28:43;23.35;;;5.55;;
24859;SDS011;12936;52.006;4.350;2023-07-31T03:31:11;28.88;;;6.93;;
24859;SDS011;12936;52.006;4.350;2023-07-31T03:33:42;26.40;;;6.90;;
24859;SDS011;12936;52.006;4.350;2023-07-31T03:36:10;22.25;;;6.20;;
24859;SDS011;12936;52.006;4.350;2023-07-31T03:38:39;32.45;;;6.05;;
24859;SDS011;12936;52.006;4.350;2023-07-31T03:41:10;24.17;;;6.28;;
24859;SDS011;12936;52.006;4.350;2023-07-31T03:43:40;16.42;;;4.63;;
24859;SDS011;12936;52.006;4.350;2023-07-31T03:46:08;14.45;;;4.30;;
24859;SDS011;12936;52.006;4.350;2023-07-31T03:48:36;9.57;;;3.58;;
24859;SDS011;12936;52.006;4.350;2023-07-31T03:51:04;12.13;;;3.55;;
24859;SDS011;12936;52.006;4.350;2023-07-31T03:53:32;10.20;;;3.20;;
24859;SDS011;12936;52.006;4.350;2023-07-31T03:56:01;9.68;;;3.47;;
24859;SDS011;12936;52.006;4.350;2023-07-31T03:58:30;9.80;;;3.00;;
24859;SDS011;12936;52.006;4.350;2023-07-31T04:01:05;11.07;;;3.58;;
24859;SDS011;12936;52.006;4.350;2023-07-31T04:03:38;12.40;;;3.20;;
24859;SDS011;12936;52.006;4.350;2023-07-31T04:06:08;7.82;;;2.63;;
24859;SDS011;12936;52.006;4.350;2023-07-31T04:08:40;9.00;;;3.20;;
24859;SDS011;12936;52.006;4.350;2023-07-31T04:11:10;7.70;;;2.33;;
24859;SDS011;12936;52.006;4.350;2023-07-31T04:13:38;6.78;;;2.08;;
24859;SDS011;12936;52.006;4.350;2023-07-31T04:16:08;4.82;;;2.45;;
24859;SDS011;12936;52.006;4.350;2023-07-31T04:18:37;3.65;;;1.77;;
24859;SDS011;12936;52.006;4.350;2023-07-31T04:21:05;5.53;;;1.80;;
24859;SDS011;12936;52.006;4.350;2023-07-31T04:23:33;3.75;;;1.48;;
24859;SDS011;12936;52.006;4.350;2023-07-31T04:26:01;8.13;;;2.00;;
24859;SDS011;12936;52.006;4.350;2023-07-31T04:28:30;4.20;;;1.27;;
24859;SDS011;12936;52.006;4.350;2023-07-31T04:30:58;4.10;;;1.40;;
24859;SDS011;12936;52.006;4.350;2023-07-31T04:33:30;3.72;;;1.60;;
24859;SDS011;12936;52.006;4.350;2023-07-31T04:36:01;4.45;;;1.70;;
24859;SDS011;12936;52.006;4.350;2023-07-31T04:38:32;5.03;;;1.45;;
24859;SDS011;12936;52.006;4.350;2023-07-31T04:41:03;4.70;;;1.67;;
24859;SDS011;12936;52.006;4.350;2023-07-31T04:43:32;3.40;;;1.65;;
24859;SDS011;12936;52.006;4.350;2023-07-31T04:46:01;5.35;;;1.92;;
24859;SDS011;12936;52.006;4.350;2023-07-31T04:48:31;5.05;;;2.50;;
24859;SDS011;12936;52.006;4.350;2023-07-31T04:50:59;4.93;;;2.60;;
24859;SDS011;12936;52.006;4.350;2023-07-31T04:53:27;4.82;;;2.47;;
24859;SDS011;12936;52.006;4.350;2023-07-31T04:55:56;5.47;;;2.50;;
24859;SDS011;12936;52.006;4.350;2023-07-31T04:58:39;5.72;;;2.50;;
24859;SDS011;12936;52.006;4.350;2023-07-31T05:01:09;4.90;;;2.40;;
24859;SDS011;12936;52.006;4.350;2023-07-31T05:03:39;4.95;;;2.40;;
24859;SDS011;12936;52.006;4.350;2023-07-31T05:06:12;5.35;;;2.47;;
24859;SDS011;12936;52.006;4.350;2023-07-31T05:08:42;4.97;;;2.50;;
24859;SDS011;12936;52.006;4.350;2023-07-31T05:11:32;5.47;;;2.50;;
24859;SDS011;12936;52.006;4.350;2023-07-31T05:14:01;6.50;;;2.45;;
24859;SDS011;12936;52.006;4.350;2023-07-31T05:16:29;6.90;;;2.70;;
24859;SDS011;12936;52.006;4.350;2023-07-31T05:18:59;5.70;;;2.63;;
24859;SDS011;12936;52.006;4.350;2023-07-31T05:21:28;6.28;;;2.25;;
24859;SDS011;12936;52.006;4.350;2023-07-31T05:23:58;4.20;;;2.22;;
24859;SDS011;12936;52.006;4.350;2023-07-31T05:26:28;4.57;;;1.95;;
24859;SDS011;12936;52.006;4.350;2023-07-31T05:28:57;5.55;;;2.47;;
24859;SDS011;12936;52.006;4.350;2023-07-31T05:31:25;4.95;;;1.73;;
24859;SDS011;12936;52.006;4.350;2023-07-31T05:33:53;5.68;;;2.10;;
24859;SDS011;12936;52.006;4.350;2023-07-31T05:36:23;3.58;;;1.90;;
24859;SDS011;12936;52.006;4.350;2023-07-31T05:38:52;6.80;;;1.90;;
24859;SDS011;12936;52.006;4.350;2023-07-31T05:41:20;5.18;;;1.83;;
24859;SDS011;12936;52.006;4.350;2023-07-31T05:43:48;2.90;;;1.83;;
24859;SDS011;12936;52.006;4.350;2023-07-31T05:46:16;3.42;;;1.63;;
24859;SDS011;12936;52.006;4.350;2023-07-31T05:48:46;3.33;;;1.60;;
24859;SDS011;12936;52.006;4.350;2023-07-31T05:51:15;3.17;;;1.88;;
24859;SDS011;12936;52.006;4.350;2023-07-31T05:53:44;3.83;;;1.60;;
24859;SDS011;12936;52.006;4.350;2023-07-31T05:56:13;3.40;;;1.67;;
24859;SDS011;12936;52.006;4.350;2023-07-31T05:58:41;4.68;;;2.10;;
24859;SDS011;12936;52.006;4.350;2023-07-31T06:01:11;3.78;;;1.52;;
24859;SDS011;12936;52.006;4.350;2023-07-31T06:03:40;4.72;;;1.50;;
24859;SDS011;12936;52.006;4.350;2023-07-31T06:06:10;1.90;;;1.20;;
24859;SDS011;12936;52.006;4.350;2023-07-31T06:08:41;1.88;;;1.20;;
24859;SDS011;12936;52.006;4.350;2023-07-31T06:11:11;1.98;;;1.25;;
24859;SDS011;12936;52.006;4.350;2023-07-31T06:13:39;3.67;;;1.10;;
24859;SDS011;12936;52.006;4.350;2023-07-31T06:16:15;3.63;;;1.05;;
24859;SDS011;12936;52.006;4.350;2023-07-31T06:18:46;2.55;;;0.88;;
24859;SDS011;12936;52.006;4.350;2023-07-31T06:21:15;2.35;;;1.20;;
24859;SDS011;12936;52.006;4.350;2023-07-31T06:23:46;5.03;;;1.38;;
24859;SDS011;12936;52.006;4.350;2023-07-31T06:26:15;2.95;;;1.30;;
24859;SDS011;12936;52.006;4.350;2023-07-31T06:28:43;4.88;;;1.30;;
24859;SDS011;12936;52.006;4.350;2023-07-31T06:31:12;2.72;;;1.50;;
24859;SDS011;12936;52.006;4.350;2023-07-31T06:33:40;2.13;;;1.20;;
24859;SDS011;12936;52.006;4.350;2023-07-31T06:36:10;2.83;;;1.33;;
24859;SDS011;12936;52.006;4.350;2023-07-31T06:38:39;3.38;;;1.58;;
24859;SDS011;12936;52.006;4.350;2023-07-31T06:41:08;3.40;;;1.42;;
24859;SDS011;12936;52.006;4.350;2023-07-31T06:43:39;2.63;;;1.20;;
24859;SDS011;12936;52.006;4.350;2023-07-31T06:46:10;5.45;;;1.70;;
24859;SDS011;12936;52.006;4.350;2023-07-31T06:48:41;3.60;;;1.23;;
24859;SDS011;12936;52.006;4.350;2023-07-31T06:51:10;2.92;;;1.20;;
24859;SDS011;12936;52.006;4.350;2023-07-31T06:53:44;2.75;;;1.15;;
24859;SDS011;12936;52.006;4.350;2023-07-31T06:56:32;3.95;;;1.10;;
24859;SDS011;12936;52.006;4.350;2023-07-31T06:59:05;2.05;;;1.17;;
24859;SDS011;12936;52.006;4.350;2023-07-31T07:01:36;3.30;;;1.95;;
24859;SDS011;12936;52.006;4.350;2023-07-31T07:04:05;2.05;;;1.30;;
24859;SDS011;12936;52.006;4.350;2023-07-31T07:06:33;2.92;;;1.40;;
24859;SDS011;12936;52.006;4.350;2023-07-31T07:09:01;2.15;;;1.00;;
24859;SDS011;12936;52.006;4.350;2023-07-31T07:11:31;3.45;;;1.25;;
24859;SDS011;12936;52.006;4.350;2023-07-31T07:13:59;2.40;;;0.95;;
24859;SDS011;12936;52.006;4.350;2023-07-31T07:16:29;0.95;;;0.80;;
24859;SDS011;12936;52.006;4.350;2023-07-31T07:18:57;0.80;;;0.68;;
24859;SDS011;12936;52.006;4.350;2023-07-31T07:21:30;0.73;;;0.65;;
24859;SDS011;12936;52.006;4.350;2023-07-31T07:23:58;2.95;;;0.90;;
24859;SDS011;12936;52.006;4.350;2023-07-31T07:26:26;2.97;;;0.95;;
24859;SDS011;12936;52.006;4.350;2023-07-31T07:28:54;2.13;;;0.82;;
24859;SDS011;12936;52.006;4.350;2023-07-31T07:31:27;1.55;;;0.90;;
24859;SDS011;12936;52.006;4.350;2023-07-31T07:33:58;2.25;;;0.90;;
24859;SDS011;12936;52.006;4.350;2023-07-31T07:36:28;3.53;;;1.58;;
24859;SDS011;12936;52.006;4.350;2023-07-31T07:38:59;1.65;;;0.98;;
24859;SDS011;12936;52.006;4.350;2023-07-31T07:41:28;3.97;;;1.40;;
24859;SDS011;12936;52.006;4.350;2023-07-31T07:43:56;6.82;;;1.60;;
24859;SDS011;12936;52.006;4.350;2023-07-31T07:46:25;5.63;;;1.60;;
24859;SDS011;12936;52.006;4.350;2023-07-31T07:48:55;3.67;;;1.60;;
24859;SDS011;12936;52.006;4.350;2023-07-31T07:51:23;8.98;;;2.15;;
24859;SDS011;12936;52.006;4.350;2023-07-31T07:53:56;11.15;;;2.25;;
24859;SDS011;12936;52.006;4.350;2023-07-31T07:56:25;8.07;;;2.38;;
24859;SDS011;12936;52.006;4.350;2023-07-31T07:58:54;13.25;;;2.88;;
24859;SDS011;12936;52.006;4.350;2023-07-31T08:01:23;10.32;;;2.92;;
24859;SDS011;12936;52.006;4.350;2023-07-31T08:03:51;16.15;;;3.08;;
24859;SDS011;12936;52.006;4.350;2023-07-31T08:06:21;14.60;;;3.00;;
24859;SDS011;12936;52.006;4.350;2023-07-31T08:08:50;15.27;;;3.00;;
24859;SDS011;12936;52.006;4.350;2023-07-31T08:11:19;17.63;;;3.55;;
24859;SDS011;12936;52.006;4.350;2023-07-31T08:13:48;15.93;;;3.08;;
24859;SDS011;12936;52.006;4.350;2023-07-31T08:16:19;14.52;;;3.28;;
24859;SDS011;12936;52.006;4.350;2023-07-31T08:18:50;13.93;;;3.28;;
24859;SDS011;12936;52.006;4.350;2023-07-31T08:21:19;15.68;;;3.17;;
24859;SDS011;12936;52.006;4.350;2023-07-31T08:23:50;19.15;;;3.05;;
24859;SDS011;12936;52.006;4.350;2023-07-31T08:26:18;18.75;;;2.75;;
24859;SDS011;12936;52.006;4.350;2023-07-31T08:28:48;17.20;;;3.05;;
24859;SDS011;12936;52.006;4.350;2023-07-31T08:31:16;17.60;;;3.15;;
24859;SDS011;12936;52.006;4.350;2023-07-31T08:33:45;12.32;;;3.22;;
24859;SDS011;12936;52.006;4.350;2023-07-31T08:36:13;16.02;;;2.95;;
24859;SDS011;12936;52.006;4.350;2023-07-31T08:38:41;16.85;;;3.10;;
24859;SDS011;12936;52.006;4.350;2023-07-31T08:41:12;17.65;;;3.05;;
24859;SDS011;12936;52.006;4.350;2023-07-31T08:43:43;18.75;;;3.50;;
24859;SDS011;12936;52.006;4.350;2023-07-31T08:46:13;20.25;;;4.38;;
24859;SDS011;12936;52.006;4.350;2023-07-31T08:48:42;15.25;;;2.67;;
24859;SDS011;12936;52.006;4.350;2023-07-31T08:51:13;19.85;;;3.78;;
24859;SDS011;12936;52.006;4.350;2023-07-31T08:53:42;12.63;;;3.00;;
24859;SDS011;12936;52.006;4.350;2023-07-31T08:56:10;18.92;;;3.58;;
24859;SDS011;12936;52.006;4.350;2023-07-31T08:58:43;20.98;;;3.58;;
24859;SDS011;12936;52.006;4.350;2023-07-31T09:01:14;17.65;;;4.18;;
24859;SDS011;12936;52.006;4.350;2023-07-31T09:03:43;16.33;;;3.03;;
24859;SDS011;12936;52.006;4.350;2023-07-31T09:06:13;12.60;;;3.15;;
24859;SDS011;12936;52.006;4.350;2023-07-31T09:08:43;12.50;;;3.08;;
24859;SDS011;12936;52.006;4.350;2023-07-31T09:11:13;11.48;;;2.80;;
24859;SDS011;12936;52.006;4.350;2023-07-31T09:13:41;13.55;;;2.78;;
24859;SDS011;12936;52.006;4.350;2023-07-31T09:16:10;14.77;;;2.67;;
24859;SDS011;12936;52.006;4.350;2023-07-31T09:18:52;16.05;;;3.10;;
24859;SDS011;12936;52.006;4.350;2023-07-31T09:21:21;11.20;;;2.90;;
24859;SDS011;12936;52.006;4.350;2023-07-31T09:23:50;10.32;;;2.63;;
24859;SDS011;12936;52.006;4.350;2023-07-31T09:26:31;10.65;;;2.58;;
24859;SDS011;12936;52.006;4.350;2023-07-31T09:29:01;9.10;;;2.65;;
24859;SDS011;12936;52.006;4.350;2023-07-31T09:31:38;8.80;;;2.70;;
24859;SDS011;12936;52.006;4.350;2023-07-31T09:34:08;12.95;;;2.63;;
24859;SDS011;12936;52.006;4.350;2023-07-31T09:36:39;10.45;;;2.80;;
24859;SDS011;12936;52.006;4.350;2023-07-31T09:39:09;15.63;;;3.63;;
24859;SDS011;12936;52.006;4.350;2023-07-31T09:41:39;16.33;;;3.00;;
24859;SDS011;12936;52.006;4.350;2023-07-31T09:44:11;14.77;;;3.28;;
24859;SDS011;12936;52.006;4.350;2023-07-31T09:46:39;12.85;;;2.92;;
24859;SDS011;12936;52.006;4.350;2023-07-31T09:49:09;13.00;;;3.10;;
24859;SDS011;12936;52.006;4.350;2023-07-31T09:51:38;12.45;;;3.00;;
24859;SDS011;12936;52.006;4.350;2023-07-31T09:54:11;13.25;;;3.20;;
24859;SDS011;12936;52.006;4.350;2023-07-31T09:56:43;16.52;;;3.15;;
24859;SDS011;12936;52.006;4.350;2023-07-31T09:59:13;13.52;;;3.15;;
24859;SDS011;12936;52.006;4.350;2023-07-31T10:01:46;8.95;;;2.55;;
24859;SDS011;12936;52.006;4.350;2023-07-31T10:04:16;13.38;;;2.42;;
24859;SDS011;12936;52.006;4.350;2023-07-31T10:06:49;16.70;;;3.22;;
24859;SDS011;12936;52.006;4.350;2023-07-31T10:09:18;11.75;;;2.85;;
24859;SDS011;12936;52.006;4.350;2023-07-31T10:11:52;11.90;;;2.58;;
24859;SDS011;12936;52.006;4.350;2023-07-31T10:14:29;18.10;;;3.63;;
24859;SDS011;12936;52.006;4.350;2023-07-31T10:16:58;19.50;;;3.47;;
24859;SDS011;12936;52.006;4.350;2023-07-31T10:19:27;18.88;;;4.05;;
24859;SDS011;12936;52.006;4.350;2023-07-31T10:21:57;24.98;;;4.30;;
24859;SDS011;12936;52.006;4.350;2023-07-31T10:24:26;21.38;;;3.70;;
24859;SDS011;12936;52.006;4.350;2023-07-31T10:26:57;22.60;;;3.35;;
24859;SDS011;12936;52.006;4.350;2023-07-31T10:29:27;13.43;;;2.95;;
24859;SDS011;12936;52.006;4.350;2023-07-31T10:31:59;20.90;;;3.38;;
24859;SDS011;12936;52.006;4.350;2023-07-31T10:34:31;14.32;;;2.90;;
24859;SDS011;12936;52.006;4.350;2023-07-31T10:37:22;14.93;;;3.05;;
24859;SDS011;12936;52.006;4.350;2023-07-31T10:39:55;11.95;;;3.05;;
24859;SDS011;12936;52.006;4.350;2023-07-31T10:42:45;15.82;;;3.30;;
24859;SDS011;12936;52.006;4.350;2023-07-31T10:45:23;19.70;;;3.22;;
24859;SDS011;12936;52.006;4.350;2023-07-31T10:47:58;18.58;;;3.95;;
24859;SDS011;12936;52.006;4.350;2023-07-31T10:50:28;17.23;;;2.88;;
24859;SDS011;12936;52.006;4.350;2023-07-31T10:53:03;20.23;;;3.10;;
24859;SDS011;12936;52.006;4.350;2023-07-31T10:55:38;12.82;;;3.20;;
24859;SDS011;12936;52.006;4.350;2023-07-31T10:58:10;11.65;;;3.15;;
24859;SDS011;12936;52.006;4.350;2023-07-31T11:00:40;14.68;;;2.85;;
24859;SDS011;12936;52.006;4.350;2023-07-31T11:03:09;12.10;;;2.80;;
24859;SDS011;12936;52.006;4.350;2023-07-31T11:05:43;12.88;;;2.78;;
24859;SDS011;12936;52.006;4.350;2023-07-31T11:08:17;10.27;;;2.47;;
24859;SDS011;12936;52.006;4.350;2023-07-31T11:10:47;9.20;;;2.80;;
24859;SDS011;12936;52.006;4.350;2023-07-31T11:13:17;10.57;;;2.33;;
24859;SDS011;12936;52.006;4.350;2023-07-31T11:15:46;13.95;;;2.42;;
24859;SDS011;12936;52.006;4.350;2023-07-31T11:18:14;16.95;;;2.97;;
24859;SDS011;12936;52.006;4.350;2023-07-31T11:20:45;10.70;;;2.67;;
24859;SDS011;12936;52.006;4.350;2023-07-31T11:23:15;9.85;;;2.40;;
24859;SDS011;12936;52.006;4.350;2023-07-31T11:25:49;14.23;;;2.88;;
24859;SDS011;12936;52.006;4.350;2023-07-31T11:28:19;12.32;;;2.92;;
24859;SDS011;12936;52.006;4.350;2023-07-31T11:30:48;13.13;;;3.08;;
24859;SDS011;12936;52.006;4.350;2023-07-31T11:33:16;16.08;;;2.80;;
24859;SDS011;12936;52.006;4.350;2023-07-31T11:35:44;11.35;;;2.40;;
24859;SDS011;12936;52.006;4.350;2023-07-31T11:38:20;12.10;;;2.00;;
24859;SDS011;12936;52.006;4.350;2023-07-31T11:40:49;9.77;;;1.98;;
24859;SDS011;12936;52.006;4.350;2023-07-31T11:43:19;11.45;;;2.22;;
24859;SDS011;12936;52.006;4.350;2023-07-31T11:45:49;12.27;;;2.35;;
24859;SDS011;12936;52.006;4.350;2023-07-31T11:48:22;6.47;;;2.38;;
24859;SDS011;12936;52.006;4.350;2023-07-31T11:50:57;7.60;;;1.50;;
24859;SDS011;12936;52.006;4.350;2023-07-31T11:53:27;7.72;;;1.92;;
24859;SDS011;12936;52.006;4.350;2023-07-31T11:55:59;9.35;;;2.20;;
24859;SDS011;12936;52.006;4.350;2023-07-31T11:58:34;8.48;;;1.80;;
24859;SDS011;12936;52.006;4.350;2023-07-31T12:01:03;5.70;;;1.85;;
24859;SDS011;12936;52.006;4.350;2023-07-31T12:03:32;7.80;;;1.90;;
24859;SDS011;12936;52.006;4.350;2023-07-31T12:06:01;14.68;;;2.22;;
24859;SDS011;12936;52.006;4.350;2023-07-31T12:08:30;12.52;;;2.20;;
24859;SDS011;12936;52.006;4.350;2023-07-31T12:11:02;11.18;;;2.40;;
24859;SDS011;12936;52.006;4.350;2023-07-31T12:13:31;14.80;;;2.90;;
24859;SDS011;12936;52.006;4.350;2023-07-31T12:16:02;13.07;;;2.78;;
24859;SDS011;12936;52.006;4.350;2023-07-31T12:18:33;12.88;;;2.40;;
24859;SDS011;12936;52.006;4.350;2023-07-31T12:21:04;10.30;;;2.38;;
24859;SDS011;12936;52.006;4.350;2023-07-31T12:23:35;5.70;;;1.90;;
24859;SDS011;12936;52.006;4.350;2023-07-31T12:26:05;7.43;;;1.80;;
24859;SDS011;12936;52.006;4.350;2023-07-31T12:28:36;9.10;;;1.90;;
24859;SDS011;12936;52.006;4.350;2023-07-31T12:31:05;9.07;;;2.05;;
24859;SDS011;12936;52.006;4.350;2023-07-31T12:33:35;9.93;;;1.90;;
24859;SDS011;12936;52.006;4.350;2023-07-31T12:36:07;5.80;;;1.70;;
24859;SDS011;12936;52.006;4.350;2023-07-31T12:38:36;9.85;;;2.92;;
24859;SDS011;12936;52.006;4.350;2023-07-31T12:41:04;5.95;;;1.60;;
24859;SDS011;12936;52.006;4.350;2023-07-31T12:43:33;5.53;;;1.80;;
24859;SDS011;12936;52.006;4.350;2023-07-31T12:46:03;5.00;;;1.83;;
24859;SDS011;12936;52.006;4.350;2023-07-31T12:48:31;9.15;;;1.63;;
24859;SDS011;12936;52.006;4.350;2023-07-31T12:51:00;8.80;;;1.88;;
24859;SDS011;12936;52.006;4.350;2023-07-31T12:53:28;6.15;;;1.88;;
24859;SDS011;12936;52.006;4.350;2023-07-31T12:55:57;4.10;;;1.38;;
24859;SDS011;12936;52.006;4.350;2023-07-31T12:58:28;3.25;;;1.30;;
24859;SDS011;12936;52.006;4.350;2023-07-31T13:00:56;4.03;;;1.60;;
24859;SDS011;12936;52.006;4.350;2023-07-31T13:03:26;3.53;;;1.65;;
24859;SDS011;12936;52.006;4.350;2023-07-31T13:05:54;5.03;;;1.70;;
24859;SDS011;12936;52.006;4.350;2023-07-31T13:08:25;4.88;;;1.60;;
24859;SDS011;12936;52.006;4.350;2023-07-31T13:10:53;4.68;;;1.40;;
24859;SDS011;12936;52.006;4.350;2023-07-31T13:13:21;3.70;;;1.85;;
24859;SDS011;12936;52.006;4.350;2023-07-31T13:15:49;3.45;;;1.77;;
24859;SDS011;12936;52.006;4.350;2023-07-31T13:18:18;7.55;;;1.92;;
24859;SDS011;12936;52.006;4.350;2023-07-31T13:20:48;3.90;;;1.35;;
24859;SDS011;12936;52.006;4.350;2023-07-31T13:23:16;4.10;;;1.38;;
24859;SDS011;12936;52.006;4.350;2023-07-31T13:25:46;5.20;;;1.30;;
24859;SDS011;12936;52.006;4.350;2023-07-31T13:28:16;3.63;;;1.55;;
24859;SDS011;12936;52.006;4.350;2023-07-31T13:30:46;2.03;;;1.15;;
24859;SDS011;12936;52.006;4.350;2023-07-31T13:33:14;3.00;;;1.20;;
24859;SDS011;12936;52.006;4.350;2023-07-31T13:36:02;2.95;;;1.10;;
24859;SDS011;12936;52.006;4.350;2023-07-31T13:38:31;3.25;;;1.27;;
24859;SDS011;12936;52.006;4.350;2023-07-31T13:41:01;2.30;;;0.90;;
24859;SDS011;12936;52.006;4.350;2023-07-31T13:43:29;2.38;;;0.90;;
24859;SDS011;12936;52.006;4.350;2023-07-31T13:45:58;3.15;;;0.70;;
24859;SDS011;12936;52.006;4.350;2023-07-31T13:48:30;2.10;;;0.63;;
24859;SDS011;12936;52.006;4.350;2023-07-31T13:51:03;1.67;;;0.70;;
24859;SDS011;12936;52.006;4.350;2023-07-31T13:53:31;1.17;;;0.55;;
24859;SDS011;12936;52.006;4.350;2023-07-31T13:56:01;3.30;;;0.90;;
24859;SDS011;12936;52.006;4.350;2023-07-31T13:58:29;2.17;;;0.82;;
24859;SDS011;12936;52.006;4.350;2023-07-31T14:01:00;2.67;;;0.90;;
24859;SDS011;12936;52.006;4.350;2023-07-31T14:03:28;5.60;;;0.95;;
24859;SDS011;12936;52.006;4.350;2023-07-31T14:05:56;2.70;;;0.90;;
24859;SDS011;12936;52.006;4.350;2023-07-31T14:08:26;1.95;;;0.70;;
24859;SDS011;12936;52.006;4.350;2023-07-31T14:10:55;1.30;;;0.80;;
24859;SDS011;12936;52.006;4.350;2023-07-31T14:13:25;2.45;;;1.10;;
24859;SDS011;12936;52.006;4.350;2023-07-31T14:15:55;2.22;;;0.68;;
24859;SDS011;12936;52.006;4.350;2023-07-31T14:18:24;1.15;;;0.70;;
24859;SDS011;12936;52.006;4.350;2023-07-31T14:20:52;2.00;;;0.60;;
24859;SDS011;12936;52.006;4.350;2023-07-31T14:23:21;0.65;;;0.40;;
24859;SDS011;12936;52.006;4.350;2023-07-31T14:25:51;1.92;;;0.68;;
24859;SDS011;12936;52.006;4.350;2023-07-31T14:28:19;1.95;;;0.88;;
24859;SDS011;12936;52.006;4.350;2023-07-31T14:30:48;1.95;;;0.75;;
24859;SDS011;12936;52.006;4.350;2023-07-31T14:33:17;1.48;;;0.70;;
24859;SDS011;12936;52.006;4.350;2023-07-31T14:35:47;1.38;;;0.60;;
24859;SDS011;12936;52.006;4.350;2023-07-31T14:38:16;1.23;;;0.70;;
24859;SDS011;12936;52.006;4.350;2023-07-31T14:40:44;5.05;;;0.73;;
24859;SDS011;12936;52.006;4.350;2023-07-31T14:43:23;2.30;;;0.68;;
24859;SDS011;12936;52.006;4.350;2023-07-31T14:45:52;1.83;;;0.70;;
24859;SDS011;12936;52.006;4.350;2023-07-31T14:48:24;5.93;;;0.65;;
24859;SDS011;12936;52.006;4.350;2023-07-31T14:50:54;1.13;;;0.60;;
24859;SDS011;12936;52.006;4.350;2023-07-31T14:53:25;2.15;;;0.60;;
24859;SDS011;12936;52.006;4.350;2023-07-31T14:55:54;1.10;;;0.50;;
24859;SDS011;12936;52.006;4.350;2023-07-31T14:58:25;1.73;;;0.50;;